createdAt,value
2019-01-13T06:47:37.700Z,3
2019-01-13T06:56:08.245Z,7
2019-01-13T06:59:38.442Z,10
2019-01-13T07:02:08.618Z,13
2019-01-13T07:03:08.666Z,17
2019-01-13T07:04:08.727Z,20
2019-01-13T07:06:38.879Z,23
2019-01-13T07:10:09.091Z,27
2019-01-13T07:11:39.156Z,30
2019-01-13T07:12:09.181Z,33
2019-01-13T07:12:39.261Z,37
2019-01-13T07:13:39.279Z,40
2019-01-13T07:16:40.753Z,43
2019-01-13T07:18:09.569Z,50
2019-01-13T07:18:39.579Z,57
2019-01-13T07:19:09.643Z,60
2019-01-13T07:20:09.701Z,63
2019-01-13T07:20:39.819Z,67
2019-01-13T07:21:09.777Z,70
2019-01-13T07:22:09.827Z,77
2019-01-13T07:22:39.853Z,80
2019-01-13T07:23:39.930Z,77
2019-01-13T07:24:09.951Z,73
2019-01-13T07:24:39.973Z,70
2019-01-13T07:25:10.023Z,73
2019-01-13T07:25:40.020Z,70
2019-01-13T07:26:40.097Z,77
2019-01-13T07:27:10.106Z,87
2019-01-13T07:27:40.205Z,93
2019-01-13T07:28:10.192Z,100
2019-01-13T07:28:40.228Z,97
2019-01-13T07:29:10.301Z,103
2019-01-13T07:29:40.294Z,107
2019-01-13T07:30:40.342Z,113
2019-01-13T07:31:10.357Z,137
2019-01-13T07:31:40.391Z,150
2019-01-13T07:32:10.804Z,160
2019-01-13T07:32:40.475Z,180
2019-01-13T07:33:10.497Z,197
2019-01-13T07:33:40.531Z,200
2019-01-13T07:34:10.544Z,207
2019-01-13T07:34:40.583Z,233
2019-01-13T07:35:10.596Z,247
2019-01-13T07:36:10.710Z,257
2019-01-13T07:37:10.782Z,267
2019-01-13T07:37:40.786Z,287
2019-01-13T07:38:10.819Z,293
2019-01-13T07:38:40.878Z,317
2019-01-13T07:39:10.839Z,320
2019-01-13T07:39:40.913Z,317
2019-01-13T07:40:10.909Z,327
2019-01-13T07:40:40.978Z,330
2019-01-13T07:41:10.970Z,337
2019-01-13T07:41:42.106Z,377
2019-01-13T07:42:11.109Z,433
2019-01-13T07:42:41.084Z,477
2019-01-13T07:43:11.102Z,510
2019-01-13T07:43:41.176Z,557
2019-01-13T07:44:11.163Z,607
2019-01-13T07:44:41.208Z,630
2019-01-13T07:45:11.273Z,647
2019-01-13T07:45:41.274Z,667
2019-01-13T07:46:11.347Z,663
2019-01-13T07:47:11.393Z,670
2019-01-13T07:48:11.438Z,663
2019-01-13T07:48:41.556Z,660
2019-01-13T07:49:11.494Z,680
2019-01-13T07:49:41.512Z,710
2019-01-13T07:50:11.530Z,727
2019-01-13T07:51:11.589Z,743
2019-01-13T07:51:41.706Z,737
2019-01-13T07:52:41.679Z,760
2019-01-13T07:53:11.755Z,777
2019-01-13T07:53:41.752Z,783
2019-01-13T07:54:11.785Z,793
2019-01-13T07:54:41.821Z,800
2019-01-13T07:55:11.912Z,810
2019-01-13T07:55:41.904Z,830
2019-01-13T07:56:11.901Z,853
2019-01-13T07:56:41.946Z,880
2019-01-13T07:57:12.040Z,910
2019-01-13T07:57:42.007Z,930
2019-01-13T07:58:12.091Z,973
2019-01-13T07:58:42.064Z,1020
2019-01-13T07:59:12.118Z,1077
2019-01-13T07:59:42.138Z,1123
2019-01-13T08:00:12.185Z,1177
2019-01-13T08:00:42.233Z,1233
2019-01-13T08:01:12.240Z,1290
2019-01-13T08:01:42.257Z,1317
2019-01-13T08:02:17.781Z,1327
2019-01-13T08:02:42.313Z,1363
2019-01-13T08:03:12.358Z,1410
2019-01-13T08:03:42.370Z,1457
2019-01-13T08:04:12.426Z,1493
2019-01-13T08:04:42.442Z,1527
2019-01-13T08:05:12.485Z,1543
2019-01-13T08:05:42.495Z,1570
2019-01-13T08:06:12.550Z,1610
2019-01-13T08:06:42.535Z,1657
2019-01-13T08:07:12.631Z,1707
2019-01-13T08:07:42.618Z,1747
2019-01-13T08:08:12.673Z,1757
2019-01-13T08:08:42.682Z,1783
2019-01-13T08:09:12.685Z,1807
2019-01-13T08:09:42.740Z,1830
2019-01-13T08:10:42.803Z,1837
2019-01-13T08:11:12.885Z,1843
2019-01-13T08:11:43.018Z,1850
2019-01-13T08:12:12.961Z,1890
2019-01-13T08:12:42.925Z,1907
2019-01-13T08:13:12.970Z,1873
2019-01-13T08:13:42.995Z,1833
2019-01-13T08:14:13.033Z,1790
2019-01-13T08:14:43.046Z,1713
2019-01-13T08:15:13.124Z,1673
2019-01-13T08:15:43.108Z,1633
2019-01-13T08:16:13.120Z,1597
2019-01-13T08:16:43.173Z,1583
2019-01-13T08:17:13.279Z,1573
2019-01-13T08:17:43.242Z,1537
2019-01-13T08:18:13.296Z,1517
2019-01-13T08:18:43.295Z,1500
2019-01-13T08:19:13.311Z,1483
2019-01-13T08:20:13.407Z,1517
2019-01-13T08:20:43.664Z,1567
2019-01-13T08:21:13.463Z,1640
2019-01-13T08:21:43.472Z,1713
2019-01-13T08:22:13.582Z,1820
2019-01-13T08:22:43.568Z,1970
2019-01-13T08:23:13.559Z,2150
2019-01-13T08:23:43.631Z,2303
2019-01-13T08:24:13.635Z,2350
2019-01-13T08:24:43.648Z,2397
2019-01-13T08:25:13.703Z,2410
2019-01-13T08:25:43.712Z,2460
2019-01-13T08:26:13.771Z,2520
2019-01-13T08:26:43.772Z,2587
2019-01-13T08:27:13.885Z,2720
2019-01-13T08:27:43.856Z,2843
2019-01-13T08:28:13.860Z,2947
2019-01-13T08:28:43.951Z,3033
2019-01-13T08:29:13.918Z,3153
2019-01-13T08:29:43.978Z,3290
2019-01-13T08:30:13.982Z,3430
2019-01-13T08:30:44.015Z,3503
2019-01-13T08:31:14.050Z,3537
2019-01-13T08:31:44.071Z,3603
2019-01-13T08:32:14.156Z,3623
2019-01-13T08:32:44.171Z,3620
2019-01-13T08:33:14.200Z,3607
2019-01-13T08:33:44.219Z,3620
2019-01-13T08:34:14.281Z,3617
2019-01-13T08:34:44.284Z,3493
2019-01-13T08:35:14.327Z,3253
2019-01-13T08:35:44.319Z,3070
2019-01-13T08:36:14.400Z,3117
2019-01-13T08:36:44.461Z,3343
2019-01-13T08:37:14.464Z,3437
2019-01-13T08:37:44.488Z,3483
2019-01-13T08:38:14.515Z,3533
2019-01-13T08:38:44.528Z,3510
2019-01-13T08:39:14.527Z,3540
2019-01-13T08:39:44.593Z,3590
2019-01-13T08:40:14.595Z,3530
2019-01-13T08:40:44.660Z,3473
2019-01-13T08:41:14.683Z,3533
2019-01-13T08:41:44.711Z,3537
2019-01-13T08:42:14.814Z,3470
2019-01-13T08:42:44.751Z,3437
2019-01-13T08:43:14.805Z,3623
2019-01-13T08:43:44.834Z,3967
2019-01-13T08:44:14.909Z,4287
2019-01-13T08:44:44.895Z,4483
2019-01-13T08:45:14.992Z,4540
2019-01-13T08:45:50.191Z,4563
2019-01-13T08:46:14.992Z,4680
2019-01-13T08:46:45.022Z,4740
2019-01-13T08:47:15.115Z,4657
2019-01-13T08:47:45.077Z,4557
2019-01-13T08:48:45.152Z,4563
2019-01-13T08:49:15.169Z,4547
2019-01-13T08:49:45.223Z,4517
2019-01-13T08:50:15.246Z,4493
2019-01-13T08:50:45.263Z,4453
2019-01-13T08:51:15.315Z,4387
2019-01-13T08:51:45.342Z,4327
2019-01-13T08:52:15.507Z,4317
2019-01-13T08:52:45.392Z,4337
2019-01-13T08:53:15.415Z,4397
2019-01-13T08:53:45.448Z,4473
2019-01-13T08:54:15.510Z,4513
2019-01-13T08:54:45.570Z,4520
2019-01-13T08:55:15.612Z,4550
2019-01-13T08:55:45.576Z,4623
2019-01-13T08:56:15.675Z,4723
2019-01-13T08:56:45.710Z,4837
2019-01-13T08:57:15.764Z,4920
2019-01-13T08:57:45.691Z,4970
2019-01-13T08:58:15.760Z,4920
2019-01-13T08:58:45.766Z,4823
2019-01-13T08:59:15.830Z,4670
2019-01-13T08:59:45.815Z,4523
2019-01-13T09:00:15.844Z,4443
2019-01-13T09:01:15.913Z,4420
2019-01-13T09:01:45.955Z,4423
2019-01-13T09:02:16.039Z,4480
2019-01-13T09:02:46.043Z,4527
2019-01-13T09:03:16.074Z,4517
2019-01-13T09:03:46.075Z,4577
2019-01-13T09:04:16.128Z,4723
2019-01-13T09:04:46.138Z,4840
2019-01-13T09:05:16.132Z,4937
2019-01-13T09:05:46.185Z,4980
2019-01-13T09:06:16.251Z,4963
2019-01-13T09:06:46.656Z,4950
2019-01-13T09:07:16.365Z,4967
2019-01-13T09:07:46.340Z,4973
2019-01-13T09:08:16.469Z,4923
2019-01-13T09:08:46.375Z,4767
2019-01-13T09:09:16.652Z,4593
2019-01-13T09:09:46.458Z,4630
2019-01-13T09:10:17.076Z,4997
2019-01-13T09:10:46.516Z,5410
2019-01-13T09:11:16.545Z,5450
2019-01-13T09:11:46.552Z,5293
2019-01-13T09:12:16.644Z,5213
2019-01-13T09:12:46.641Z,5330
2019-01-13T09:13:16.750Z,5510
2019-01-13T09:13:46.662Z,5690
2019-01-13T09:14:16.734Z,5817
2019-01-13T09:14:46.746Z,5850
2019-01-13T09:15:16.766Z,5857
2019-01-13T09:15:46.802Z,5787
2019-01-13T09:16:16.831Z,5677
2019-01-13T09:16:46.873Z,5633
2019-01-13T09:17:16.945Z,5810
2019-01-13T09:17:46.901Z,6067
2019-01-13T09:18:16.986Z,6110
2019-01-13T09:18:46.964Z,5990
2019-01-13T09:19:16.996Z,5823
2019-01-13T09:19:47.019Z,5577
2019-01-13T09:20:17.071Z,5440
2019-01-13T09:20:47.112Z,5567
2019-01-13T09:21:17.554Z,5723
2019-01-13T09:21:47.248Z,5740
2019-01-13T09:22:17.309Z,5750
2019-01-13T09:22:47.231Z,5743
2019-01-13T09:23:17.291Z,5747
2019-01-13T09:23:47.299Z,5683
2019-01-13T09:24:17.359Z,5677
2019-01-13T09:24:47.338Z,5750
2019-01-13T09:25:17.412Z,5773
2019-01-13T09:25:47.418Z,5857
2019-01-13T09:26:17.476Z,5817
2019-01-13T09:26:51.003Z,5587
2019-01-13T09:27:17.598Z,5567
2019-01-13T09:27:47.537Z,5523
2019-01-13T09:28:17.582Z,5423
2019-01-13T09:28:47.617Z,5490
2019-01-13T09:29:17.668Z,5660
2019-01-13T09:29:47.938Z,5700
2019-01-13T09:30:17.699Z,5697
2019-01-13T09:30:47.748Z,5783
2019-01-13T09:31:17.854Z,5820
2019-01-13T09:31:47.807Z,5760
2019-01-13T09:32:17.848Z,5937
2019-01-13T09:32:47.860Z,6060
2019-01-13T09:33:17.888Z,6050
2019-01-13T09:33:47.914Z,6120
2019-01-13T09:34:17.917Z,6203
2019-01-13T09:34:48.059Z,6307
2019-01-13T09:35:18.013Z,6430
2019-01-13T09:35:48.033Z,6773
2019-01-13T09:36:18.043Z,7147
2019-01-13T09:36:48.095Z,7453
2019-01-13T09:37:18.204Z,7687
2019-01-13T09:37:48.156Z,7830
2019-01-13T09:38:18.195Z,7857
2019-01-13T09:38:48.261Z,7817
2019-01-13T09:39:18.276Z,7787
2019-01-13T09:39:48.303Z,7640
2019-01-13T09:40:18.332Z,7513
2019-01-13T09:40:48.347Z,7847
2019-01-13T09:41:18.356Z,8367
2019-01-13T09:41:48.522Z,8847
2019-01-13T09:42:18.497Z,9210
2019-01-13T09:42:48.457Z,9350
2019-01-13T09:43:18.497Z,9263
2019-01-13T09:43:48.527Z,9287
2019-01-13T09:44:18.565Z,10030
2019-01-13T09:44:48.595Z,10667
2019-01-13T09:45:18.593Z,11053
2019-01-13T09:45:48.664Z,10987
2019-01-13T09:46:18.685Z,10373
2019-01-13T09:46:49.127Z,10140
2019-01-13T09:47:18.806Z,9730
2019-01-13T09:47:48.766Z,9513
2019-01-13T09:48:18.802Z,9730
2019-01-13T09:48:48.829Z,9803
2019-01-13T09:49:18.861Z,9470
2019-01-13T09:49:49.931Z,9457
2019-01-13T09:50:18.925Z,9590
2019-01-13T09:50:49.038Z,9327
2019-01-13T09:51:19.079Z,9240
2019-01-13T09:51:49.055Z,9487
2019-01-13T09:52:19.170Z,9317
2019-01-13T09:52:49.106Z,9553
2019-01-13T09:53:19.173Z,9797
2019-01-13T09:53:49.173Z,9927
2019-01-13T09:54:19.243Z,9427
2019-01-13T09:54:49.242Z,9237
2019-01-13T09:55:19.295Z,10007
2019-01-13T09:55:49.293Z,10817
2019-01-13T09:56:19.363Z,11297
2019-01-13T09:56:49.351Z,11543
2019-01-13T09:57:19.424Z,11633
2019-01-13T09:57:49.413Z,11767
2019-01-13T09:58:19.448Z,12143
2019-01-13T09:58:49.477Z,12857
2019-01-13T09:59:19.568Z,12033
2019-01-13T09:59:49.548Z,10227
2019-01-13T10:00:19.628Z,9570
2019-01-13T10:00:49.609Z,9383
2019-01-13T10:01:19.782Z,8977
2019-01-13T10:01:49.643Z,9050
2019-01-13T10:02:19.687Z,9623
2019-01-13T10:02:49.695Z,10530
2019-01-13T10:03:19.762Z,11427
2019-01-13T10:03:49.757Z,11857
2019-01-13T10:04:19.843Z,12563
2019-01-13T10:04:49.820Z,13080
2019-01-13T10:05:19.878Z,13120
2019-01-13T10:05:49.889Z,12943
2019-01-13T10:06:19.950Z,13280
2019-01-13T10:06:49.939Z,13540
2019-01-13T10:07:20.041Z,12613
2019-01-13T10:07:50.030Z,11350
2019-01-13T10:08:20.069Z,11040
2019-01-13T10:08:50.066Z,10547
2019-01-13T10:09:20.123Z,10047
2019-01-13T10:09:50.178Z,9687
2019-01-13T10:10:20.215Z,8937
2019-01-13T10:10:50.212Z,8487
2019-01-13T10:11:20.291Z,9097
2019-01-13T10:11:50.300Z,8970
2019-01-13T10:12:20.322Z,9173
2019-01-13T10:12:50.392Z,8740
2019-01-13T10:13:20.354Z,9203
2019-01-13T10:13:50.434Z,9733
2019-01-13T10:14:20.511Z,10703
2019-01-13T10:14:50.458Z,11580
2019-01-13T10:15:20.516Z,11820
2019-01-13T10:15:50.527Z,12397
2019-01-13T10:16:20.535Z,13147
2019-01-13T10:16:50.623Z,12813
2019-01-13T10:17:20.671Z,12663
2019-01-13T10:17:50.643Z,13067
2019-01-13T10:18:20.723Z,13927
2019-01-13T10:18:50.711Z,14427
2019-01-13T10:19:20.764Z,15400
2019-01-13T10:19:50.770Z,15917
2019-01-13T10:20:20.773Z,16710
2019-01-13T10:20:50.835Z,16993
2019-01-13T10:21:20.835Z,16177
2019-01-13T10:21:50.892Z,14753
2019-01-13T10:22:20.999Z,13737
2019-01-13T10:22:50.945Z,13323
2019-01-13T10:23:21.021Z,13233
2019-01-13T10:23:51.019Z,12633
2019-01-13T10:24:21.071Z,12350
2019-01-13T10:24:51.067Z,12337
2019-01-13T10:25:21.108Z,11827
2019-01-13T10:25:51.145Z,10713
2019-01-13T10:26:21.137Z,9850
2019-01-13T10:26:51.196Z,9970
2019-01-13T10:27:21.266Z,11247
2019-01-13T10:27:51.255Z,11533
2019-01-13T10:28:21.330Z,11903
2019-01-13T10:28:51.316Z,12090
2019-01-13T10:29:21.337Z,11710
2019-01-13T10:29:51.360Z,11247
2019-01-13T10:30:22.254Z,11427
2019-01-13T10:30:51.441Z,10970
2019-01-13T10:31:21.484Z,10400
2019-01-13T10:31:51.505Z,10873
2019-01-13T10:32:21.551Z,11137
2019-01-13T10:32:54.405Z,10950
2019-01-13T10:33:21.599Z,10963
2019-01-13T10:33:51.599Z,10587
2019-01-13T10:34:21.704Z,9973
2019-01-13T10:34:51.692Z,9080
2019-01-13T10:35:21.759Z,8533
2019-01-13T10:35:51.750Z,8327
2019-01-13T10:36:21.808Z,7457
2019-01-13T10:36:51.817Z,7020
2019-01-13T10:37:21.946Z,6980
2019-01-13T10:37:51.868Z,6780
2019-01-13T10:38:21.929Z,6487
2019-01-13T10:38:51.975Z,6167
2019-01-13T10:39:21.984Z,6287
2019-01-13T10:39:51.996Z,6437
2019-01-13T10:40:22.034Z,6317
2019-01-13T10:40:52.062Z,5380
2019-01-13T10:41:22.118Z,5513
2019-01-13T10:41:52.197Z,5930
2019-01-13T10:42:22.213Z,6400
2019-01-13T10:42:52.184Z,6633
2019-01-13T10:43:22.253Z,6537
2019-01-13T10:43:52.246Z,7460
2019-01-13T10:44:22.247Z,8297
2019-01-13T10:44:52.314Z,8553
2019-01-13T10:45:22.333Z,8620
2019-01-13T10:45:52.372Z,9130
2019-01-13T10:46:22.439Z,9240
2019-01-13T10:46:52.464Z,8740
2019-01-13T10:47:22.537Z,8183
2019-01-13T10:47:52.484Z,9217
2019-01-13T10:48:22.548Z,8937
2019-01-13T10:48:52.551Z,9480
2019-01-13T10:49:22.598Z,10113
2019-01-13T10:49:52.612Z,9547
2019-01-13T10:50:22.679Z,9520
2019-01-13T10:50:52.669Z,9580
2019-01-13T10:51:22.719Z,9563
2019-01-13T10:51:52.720Z,9517
2019-01-13T10:52:22.748Z,9703
2019-01-13T10:52:52.787Z,9547
2019-01-13T10:53:22.823Z,9347
2019-01-13T10:53:53.025Z,9773
2019-01-13T10:54:22.870Z,9797
2019-01-13T10:54:52.889Z,9603
2019-01-13T10:55:23.000Z,9370
2019-01-13T10:55:52.960Z,9410
2019-01-13T10:56:22.984Z,9600
2019-01-13T10:56:53.019Z,9237
2019-01-13T10:57:23.154Z,9360
2019-01-13T10:57:53.145Z,9223
2019-01-13T10:58:23.108Z,9707
2019-01-13T10:58:53.178Z,9030
2019-01-13T10:59:23.216Z,9110
2019-01-13T10:59:53.197Z,8467
2019-01-13T11:00:23.303Z,8227
2019-01-13T11:00:53.277Z,8163
2019-01-13T11:01:23.458Z,7967
2019-01-13T11:01:53.373Z,7617
2019-01-13T11:02:23.380Z,7430
2019-01-13T11:02:53.420Z,7547
2019-01-13T11:03:23.459Z,6823
2019-01-13T11:03:53.473Z,8033
2019-01-13T11:04:23.516Z,9073
2019-01-13T11:04:53.529Z,9277
2019-01-13T11:05:23.640Z,9433
2019-01-13T11:05:53.602Z,9917
2019-01-13T11:06:23.708Z,9623
2019-01-13T11:06:53.665Z,8700
2019-01-13T11:07:23.660Z,7960
2019-01-13T11:07:53.767Z,8350
2019-01-13T11:08:23.751Z,8183
2019-01-13T11:08:53.752Z,7650
2019-01-13T11:09:23.837Z,7327
2019-01-13T11:09:53.840Z,7220
2019-01-13T11:10:23.932Z,7657
2019-01-13T11:10:53.880Z,7387
2019-01-13T11:11:23.916Z,8240
2019-01-13T11:11:54.638Z,8213
2019-01-13T11:12:24.148Z,8220
2019-01-13T11:12:54.082Z,7807
2019-01-13T11:13:24.099Z,7313
2019-01-13T11:13:54.069Z,8167
2019-01-13T11:14:24.118Z,7907
2019-01-13T11:14:54.118Z,7607
2019-01-13T11:15:24.183Z,8280
2019-01-13T11:15:54.243Z,8103
2019-01-13T11:16:24.387Z,8830
2019-01-13T11:16:54.261Z,8840
2019-01-13T11:17:24.332Z,8350
2019-01-13T11:17:54.334Z,8037
2019-01-13T11:18:24.394Z,8003
2019-01-13T11:18:54.395Z,7887
2019-01-13T11:19:24.421Z,7467
2019-01-13T11:19:54.456Z,6910
2019-01-13T11:20:24.503Z,6697
2019-01-13T11:20:54.496Z,6597
2019-01-13T11:21:24.611Z,6837
2019-01-13T11:21:54.580Z,6790
2019-01-13T11:22:25.160Z,6493
2019-01-13T11:22:54.635Z,6230
2019-01-13T11:23:24.682Z,6217
2019-01-13T11:23:54.698Z,5730
2019-01-13T11:24:24.742Z,6243
2019-01-13T11:24:54.772Z,6583
2019-01-13T11:25:24.813Z,6853
2019-01-13T11:25:54.826Z,6867
2019-01-13T11:26:24.865Z,6040
2019-01-13T11:26:54.882Z,6100
2019-01-13T11:27:24.992Z,6807
2019-01-13T11:27:54.947Z,7030
2019-01-13T11:28:24.995Z,6393
2019-01-13T11:28:55.016Z,5980
2019-01-13T11:29:25.022Z,5997
2019-01-13T11:29:55.091Z,6613
2019-01-13T11:30:25.115Z,6693
2019-01-13T11:30:55.130Z,6620
2019-01-13T11:31:25.163Z,6123
2019-01-13T11:31:55.197Z,6537
2019-01-13T11:32:25.204Z,6457
2019-01-13T11:32:55.248Z,6037
2019-01-13T11:33:25.310Z,6483
2019-01-13T11:33:55.354Z,6737
2019-01-13T11:34:25.350Z,6157
2019-01-13T11:34:55.390Z,6563
2019-01-13T11:35:25.387Z,6203
2019-01-13T11:35:55.442Z,6363
2019-01-13T11:36:25.534Z,7123
2019-01-13T11:36:55.516Z,6943
2019-01-13T11:37:25.512Z,7673
2019-01-13T11:37:55.580Z,8730
2019-01-13T11:38:25.570Z,8603
2019-01-13T11:38:55.611Z,8443
2019-01-13T11:39:25.659Z,8520
2019-01-13T11:39:55.699Z,8550
2019-01-13T11:40:25.706Z,7993
2019-01-13T11:40:55.732Z,7883
2019-01-13T11:41:25.783Z,7123
2019-01-13T11:41:55.781Z,6753
2019-01-13T11:42:25.813Z,7033
2019-01-13T11:42:55.884Z,6507
2019-01-13T11:43:25.891Z,7000
2019-01-13T11:43:55.902Z,7200
2019-01-13T11:44:25.943Z,7127
2019-01-13T11:44:55.978Z,6670
2019-01-13T11:45:26.025Z,6590
2019-01-13T11:45:56.149Z,6467
2019-01-13T11:46:26.058Z,5987
2019-01-13T11:46:56.087Z,5997
2019-01-13T11:47:26.176Z,6657
2019-01-13T11:47:56.176Z,8037
2019-01-13T11:48:26.188Z,7513
2019-01-13T11:48:56.219Z,7093
2019-01-13T11:49:26.271Z,7130
2019-01-13T11:49:56.291Z,7213
2019-01-13T11:50:26.307Z,7453
2019-01-13T11:50:56.403Z,7030
2019-01-13T11:51:26.414Z,7387
2019-01-13T11:51:56.421Z,7253
2019-01-13T11:52:26.460Z,7567
2019-01-13T11:52:56.497Z,7187
2019-01-13T11:53:26.528Z,7620
2019-01-13T11:53:56.553Z,8603
2019-01-13T11:54:26.606Z,8467
2019-01-13T11:54:56.613Z,7730
2019-01-13T11:55:26.650Z,8940
2019-01-13T11:55:56.679Z,9800
2019-01-13T11:56:26.742Z,10030
2019-01-13T11:56:56.731Z,9007
2019-01-13T11:57:56.812Z,9717
2019-01-13T11:58:26.803Z,8427
2019-01-13T11:58:56.848Z,8343
2019-01-13T11:59:26.897Z,8487
2019-01-13T11:59:56.928Z,9027
2019-01-13T12:00:26.993Z,8817
2019-01-13T12:00:56.980Z,8873
2019-01-13T12:01:27.207Z,8220
2019-01-13T12:01:57.044Z,7463
2019-01-13T12:02:32.491Z,7640
2019-01-13T12:02:57.090Z,7550
2019-01-13T12:03:27.143Z,7443
2019-01-13T12:03:57.160Z,8600
2019-01-13T12:04:27.247Z,9007
2019-01-13T12:04:57.233Z,8827
2019-01-13T12:05:27.267Z,8727
2019-01-13T12:05:57.306Z,7460
2019-01-13T12:06:27.340Z,6430
2019-01-13T12:06:57.382Z,6353
2019-01-13T12:07:28.904Z,6103
2019-01-13T12:07:57.399Z,6523
2019-01-13T12:08:27.473Z,6370
2019-01-13T12:08:57.539Z,7310
2019-01-13T12:09:27.542Z,7790
2019-01-13T12:09:57.591Z,8663
2019-01-13T12:10:27.538Z,8283
2019-01-13T12:10:57.593Z,8400
2019-01-13T12:11:27.638Z,9070
2019-01-13T12:11:57.658Z,7657
2019-01-13T12:12:27.692Z,7067
2019-01-13T12:12:57.777Z,6877
2019-01-13T12:13:27.745Z,7503
2019-01-13T12:13:57.790Z,6983
2019-01-13T12:14:27.828Z,6720
2019-01-13T12:14:57.869Z,7230
2019-01-13T12:15:27.909Z,6453
2019-01-13T12:15:57.904Z,5840
2019-01-13T12:16:27.949Z,5820
2019-01-13T12:16:58.002Z,5540
2019-01-13T12:17:28.034Z,5350
2019-01-13T12:17:58.022Z,5270
2019-01-13T12:18:28.051Z,4840
2019-01-13T12:18:58.087Z,4937
2019-01-13T12:19:28.094Z,5313
2019-01-13T12:19:58.153Z,5180
2019-01-13T12:20:28.187Z,5677
2019-01-13T12:20:58.214Z,5073
2019-01-13T12:21:28.253Z,5093
2019-01-13T12:21:58.279Z,5633
2019-01-13T12:22:28.304Z,5403
2019-01-13T12:22:58.330Z,5120
2019-01-13T12:23:28.378Z,4953
2019-01-13T12:23:58.391Z,4750
2019-01-13T12:24:28.432Z,5197
2019-01-13T12:24:58.520Z,5297
2019-01-13T12:25:28.549Z,5620
2019-01-13T12:25:58.495Z,6610
2019-01-13T12:26:28.530Z,6673
2019-01-13T12:26:58.576Z,6837
2019-01-13T12:27:28.709Z,7607
2019-01-13T12:27:58.672Z,7537
2019-01-13T12:28:28.646Z,7833
2019-01-13T12:28:58.938Z,8123
2019-01-13T12:29:28.715Z,9347
2019-01-13T12:29:58.738Z,8623
2019-01-13T12:30:28.814Z,7463
2019-01-13T12:30:58.809Z,7277
2019-01-13T12:31:28.862Z,6510
2019-01-13T12:31:58.868Z,5987
2019-01-13T12:32:28.915Z,5530
2019-01-13T12:32:58.920Z,6300
2019-01-13T12:33:28.957Z,6917
2019-01-13T12:33:59.025Z,6267
2019-01-13T12:34:29.017Z,4917
2019-01-13T12:34:59.039Z,5553
2019-01-13T12:35:29.136Z,5723
2019-01-13T12:35:59.132Z,4907
2019-01-13T12:36:29.171Z,5187
2019-01-13T12:36:59.217Z,5663
2019-01-13T12:37:29.196Z,5673
2019-01-13T12:37:59.256Z,5973
2019-01-13T12:38:29.299Z,6300
2019-01-13T12:38:59.304Z,6247
2019-01-13T12:39:29.355Z,5397
2019-01-13T12:39:59.351Z,5093
2019-01-13T12:40:29.474Z,5720
2019-01-13T12:41:00.197Z,5290
2019-01-13T12:41:29.483Z,4923
2019-01-13T12:41:59.497Z,4850
2019-01-13T12:42:29.534Z,5957
2019-01-13T12:42:59.559Z,5713
2019-01-13T12:43:29.600Z,5370
2019-01-13T12:43:59.636Z,5343
2019-01-13T12:44:29.785Z,5137
2019-01-13T12:44:59.690Z,5690
2019-01-13T12:45:29.777Z,5677
2019-01-13T12:45:59.769Z,4950
2019-01-13T12:46:29.798Z,4740
2019-01-13T12:46:59.805Z,4480
2019-01-13T12:47:29.892Z,3343
2019-01-13T12:47:59.872Z,3823
2019-01-13T12:48:29.925Z,4013
2019-01-13T12:48:59.926Z,4237
2019-01-13T12:49:29.965Z,4373
2019-01-13T12:50:00.004Z,5020
2019-01-13T12:50:30.054Z,4553
2019-01-13T12:51:00.062Z,5450
2019-01-13T12:51:30.095Z,6233
2019-01-13T12:52:00.131Z,8130
2019-01-13T12:52:30.172Z,9123
2019-01-13T12:53:00.199Z,9507
2019-01-13T12:53:30.243Z,8453
2019-01-13T12:54:00.651Z,7530
2019-01-13T12:54:30.247Z,8023
2019-01-13T12:55:01.072Z,7867
2019-01-13T12:55:30.454Z,6970
2019-01-13T12:56:00.646Z,7233
2019-01-13T12:56:30.397Z,7930
2019-01-13T12:57:00.962Z,6953
2019-01-13T12:57:30.469Z,6450
2019-01-13T12:58:00.914Z,5957
2019-01-13T12:58:30.591Z,6480
2019-01-13T12:59:00.991Z,7860
2019-01-13T12:59:30.589Z,7270
2019-01-13T13:00:01.263Z,6120
2019-01-13T13:00:30.699Z,5807
2019-01-13T13:01:00.823Z,4730
2019-01-13T13:01:30.707Z,4163
2019-01-13T13:02:01.073Z,4027
2019-01-13T13:02:30.786Z,4970
2019-01-13T13:03:01.060Z,5187
2019-01-13T13:03:31.742Z,5077
2019-01-13T13:04:00.930Z,5520
2019-01-13T13:04:30.856Z,4853
2019-01-13T13:05:01.413Z,4590
2019-01-13T13:05:31.010Z,5353
2019-01-13T13:06:01.160Z,5910
2019-01-13T13:06:31.030Z,5667
2019-01-13T13:07:01.009Z,5307
2019-01-13T13:07:31.096Z,6080
2019-01-13T13:08:01.084Z,6507
2019-01-13T13:08:31.141Z,6140
2019-01-13T13:09:31.234Z,5530
2019-01-13T13:10:01.194Z,6880
2019-01-13T13:10:31.290Z,7103
2019-01-13T13:11:01.259Z,8077
2019-01-13T13:11:32.157Z,7260
2019-01-13T13:12:01.320Z,7140
2019-01-13T13:12:31.463Z,5537
2019-01-13T13:13:01.399Z,4010
2019-01-13T13:13:31.533Z,4350
2019-01-13T13:14:01.448Z,4760
2019-01-13T13:14:31.547Z,5210
2019-01-13T13:15:01.519Z,5240
2019-01-13T13:15:31.644Z,4850
2019-01-13T13:16:01.594Z,4017
2019-01-13T13:16:31.632Z,3757
2019-01-13T13:17:01.640Z,3673
2019-01-13T13:17:31.652Z,3960
2019-01-13T13:18:01.764Z,4037
2019-01-13T13:18:31.746Z,3867
2019-01-13T13:19:01.817Z,3363
2019-01-13T13:19:31.924Z,2893
2019-01-13T13:20:01.879Z,3277
2019-01-13T13:20:31.897Z,3310
2019-01-13T13:21:01.873Z,3887
2019-01-13T13:21:31.903Z,3527
2019-01-13T13:22:02.008Z,2970
2019-01-13T13:22:31.969Z,3010
2019-01-13T13:23:02.054Z,2553
2019-01-13T13:23:32.026Z,2967
2019-01-13T13:24:02.058Z,3647
2019-01-13T13:24:32.096Z,3230
2019-01-13T13:25:02.131Z,3463
2019-01-13T13:25:32.331Z,4030
2019-01-13T13:26:02.217Z,4187
2019-01-13T13:26:32.261Z,3563
2019-01-13T13:27:02.278Z,3397
2019-01-13T13:27:32.320Z,4003
2019-01-13T13:28:02.300Z,3530
2019-01-13T13:28:32.398Z,3637
2019-01-13T13:29:02.374Z,4127
2019-01-13T13:29:32.439Z,3430
2019-01-13T13:30:02.456Z,3663
2019-01-13T13:30:32.514Z,3593
2019-01-13T13:31:02.508Z,3863
2019-01-13T13:31:32.572Z,3590
2019-01-13T13:32:02.585Z,3323
2019-01-13T13:32:32.577Z,3347
2019-01-13T13:33:02.641Z,3883
2019-01-13T13:33:38.648Z,4197
2019-01-13T13:34:02.697Z,3803
2019-01-13T13:34:32.780Z,3827
2019-01-13T13:35:02.757Z,3907
2019-01-13T13:35:39.379Z,4120
2019-01-13T13:36:02.829Z,4153
2019-01-13T13:36:32.871Z,4120
2019-01-13T13:37:02.884Z,4183
2019-01-13T13:37:32.955Z,4030
2019-01-13T13:38:02.950Z,3713
2019-01-13T13:38:32.997Z,3857
2019-01-13T13:39:03.005Z,4543
2019-01-13T13:39:33.064Z,4257
2019-01-13T13:40:03.074Z,3860
2019-01-13T13:40:33.154Z,4157
2019-01-13T13:41:03.126Z,4463
2019-01-13T13:41:33.184Z,4507
2019-01-13T13:42:03.217Z,3560
2019-01-13T13:42:33.264Z,4133
2019-01-13T13:43:03.252Z,4487
2019-01-13T13:43:33.273Z,4320
2019-01-13T13:44:03.316Z,3820
2019-01-13T13:44:33.353Z,3230
2019-01-13T13:45:03.399Z,2907
2019-01-13T13:45:33.400Z,3100
2019-01-13T13:46:03.453Z,3157
2019-01-13T13:46:33.486Z,3160
2019-01-13T13:47:03.495Z,3017
2019-01-13T13:47:33.539Z,2777
2019-01-13T13:48:03.559Z,2723
2019-01-13T13:48:33.594Z,2413
2019-01-13T13:49:03.624Z,2857
2019-01-13T13:49:33.688Z,3633
2019-01-13T13:50:03.698Z,3993
2019-01-13T13:50:33.790Z,3660
2019-01-13T13:51:03.740Z,3783
2019-01-13T13:51:33.777Z,3497
2019-01-13T13:52:03.818Z,3657
2019-01-13T13:52:33.886Z,3563
2019-01-13T13:53:03.865Z,3477
2019-01-13T13:53:33.910Z,3730
2019-01-13T13:54:03.935Z,3670
2019-01-13T13:54:33.956Z,3747
2019-01-13T13:55:04.000Z,3420
2019-01-13T13:55:34.044Z,3737
2019-01-13T13:56:04.027Z,3873
2019-01-13T13:56:34.083Z,3847
2019-01-13T13:57:04.115Z,4150
2019-01-13T13:57:34.156Z,4020
2019-01-13T13:58:04.178Z,3620
2019-01-13T13:58:34.256Z,3210
2019-01-13T13:59:04.234Z,2967
2019-01-13T13:59:34.308Z,2750
2019-01-13T14:00:04.327Z,2587